Time;durP1;ratioP1;P1;durP2;ratioP2;P2;SDS_P1;SDS_P2;PMS_P1;PMS_P2;Temp;Humidity;BMP_temperature;BMP_pressure;BME280_temperature;BME280_humidity;BME280_pressure;Samples;Min_cycle;Max_cycle;Signal;HPM_P1;HPM_P2
2022/04/08 00:01:59;;;;;;;5.93;2.00;;;8.00;96.20;;;8.48;81.13;96469.13;4980415;28;20469;-76
2022/04/08 00:04:30;;;;;;;7.63;1.67;;;7.90;96.20;;;8.47;80.69;96475.34;4982948;28;20476;-76
2022/04/08 00:07:00;;;;;;;4.03;1.40;;;7.90;96.20;;;8.48;81.29;96480.34;4980935;28;20461;-76
2022/04/08 00:09:29;;;;;;;15.07;2.10;;;8.00;96.40;;;8.43;82.38;96490.63;4978575;28;20540;-76
2022/04/08 00:11:59;;;;;;;4.70;1.50;;;7.90;96.60;;;8.42;82.95;96489.03;4980973;28;21000;-76
2022/04/08 00:14:29;;;;;;;8.07;1.90;;;7.90;96.70;;;8.44;82.89;96489.59;4981901;28;20836;-76
2022/04/08 00:17:01;;;;;;;5.67;1.63;;;7.90;96.70;;;8.46;83.19;96500.63;4980474;28;20481;-76
2022/04/08 00:19:31;;;;;;;4.57;1.60;;;7.90;96.80;;;8.46;83.18;96498.03;4980368;28;20463;-76
2022/04/08 00:22:01;;;;;;;11.17;1.87;;;7.90;96.80;;;8.46;83.53;96494.63;4981482;28;20527;-76
2022/04/08 00:24:30;;;;;;;9.97;2.17;;;7.90;96.80;;;8.42;83.92;96494.25;4980446;28;20472;-76
2022/04/08 00:26:59;;;;;;;6.77;1.70;;;7.90;96.80;;;8.36;84.71;96492.47;4978832;28;20550;-76
2022/04/08 00:29:31;;;;;;;10.37;3.17;;;7.90;97.10;;;8.35;85.25;96513.50;4979372;28;20472;-76
2022/04/08 00:32:00;;;;;;;5.30;1.70;;;7.80;97.20;;;8.33;85.08;96494.72;4980921;28;20476;-76
2022/04/08 00:34:31;;;;;;;10.53;2.07;;;7.80;97.10;;;8.28;85.78;96510.97;4977439;28;21005;-76
2022/04/08 00:37:01;;;;;;;5.90;1.53;;;7.80;97.10;;;8.25;86.21;96513.97;4981651;28;20602;-76
2022/04/08 00:39:32;;;;;;;4.03;1.60;;;7.80;97.30;;;8.21;86.83;96507.56;4983482;28;20472;-76
2022/04/08 00:42:02;;;;;;;6.67;2.10;;;7.70;97.40;;;8.20;86.90;96507.75;4981913;28;20460;-76
2022/04/08 00:44:34;;;;;;;10.67;2.17;;;7.70;97.50;;;8.20;87.21;96521.59;4980065;28;20475;-76
2022/04/08 00:47:04;;;;;;;8.20;1.90;;;7.70;97.50;;;8.18;87.50;96513.19;4978270;28;20475;-76
2022/04/08 00:49:37;;;;;;;10.10;1.90;;;7.70;97.50;;;8.17;88.25;96518.59;4980579;28;20472;-76
2022/04/08 00:52:08;;;;;;;6.10;1.80;;;7.70;97.70;;;8.13;89.43;96520.03;4982161;28;20596;-76
2022/04/08 00:54:39;;;;;;;7.37;1.90;;;7.60;98.00;;;8.10;88.97;96536.88;4985077;28;20499;-76
2022/04/08 00:57:09;;;;;;;13.17;2.13;;;7.60;97.80;;;8.09;89.67;96535.25;4982036;28;20565;-76
2022/04/08 00:59:40;;;;;;;10.67;1.90;;;7.60;98.00;;;8.09;90.06;96530.84;4982488;28;20456;-76
2022/04/08 01:02:09;;;;;;;6.67;1.80;;;7.50;98.10;;;8.14;90.05;96537.25;4980552;28;20996;-76
2022/04/08 01:04:42;;;;;;;5.03;1.80;;;7.60;98.30;;;8.16;90.31;96541.22;4979418;28;20564;-76
2022/04/08 01:07:13;;;;;;;6.50;1.70;;;7.60;98.30;;;8.19;90.61;96530.41;4981632;28;20456;-76
2022/04/08 01:09:45;;;;;;;13.37;2.60;;;7.60;98.40;;;8.16;91.57;96538.63;4983858;28;20467;-76
2022/04/08 01:12:15;;;;;;;13.93;2.00;;;7.60;98.40;;;8.10;91.61;96537.66;4982346;28;20520;-76
2022/04/08 01:14:47;;;;;;;10.30;2.10;;;7.60;98.50;;;8.06;91.87;96541.69;4981465;28;21021;-76
2022/04/08 01:17:17;;;;;;;9.20;1.90;;;7.60;98.40;;;7.98;92.22;96548.94;4982469;28;20528;-77
2022/04/08 01:19:47;;;;;;;8.90;1.83;;;7.50;98.50;;;7.97;92.28;96552.56;4980879;28;20555;-76
2022/04/08 01:22:19;;;;;;;10.00;2.00;;;7.40;98.60;;;7.97;93.23;96568.16;4981463;28;20514;-76
2022/04/08 01:24:49;;;;;;;8.07;2.03;;;7.40;98.70;;;7.89;92.60;96553.59;4976441;28;20481;-76
2022/04/08 01:27:21;;;;;;;11.10;1.80;;;7.40;98.50;;;7.90;93.61;96554.38;4975265;28;20502;-76
2022/04/08 01:29:51;;;;;;;9.70;2.47;;;7.40;98.80;;;7.92;93.75;96562.78;4978763;28;20459;-76
2022/04/08 01:32:19;;;;;;;7.20;1.90;;;7.40;98.80;;;7.89;93.46;96563.19;4979278;28;20479;-75
2022/04/08 01:34:50;;;;;;;13.07;1.83;;;7.30;98.80;;;7.93;93.44;96564.38;4978313;28;20463;-76
2022/04/08 01:37:20;;;;;;;9.97;1.67;;;7.40;98.80;;;7.86;94.34;96561.81;4977109;28;20576;-76
2022/04/08 01:39:49;;;;;;;9.93;2.20;;;7.30;99.00;;;7.90;94.65;96562.19;4979143;28;20514;-76
2022/04/08 01:42:24;;;;;;;10.30;2.10;;;7.30;99.10;;;7.89;95.14;96571.78;4979117;28;20518;-76
2022/04/08 01:44:55;;;;;;;7.17;2.37;;;7.30;99.30;;;7.85;95.76;96567.19;4978773;28;20889;-76
2022/04/08 01:47:25;;;;;;;10.27;1.90;;;7.30;99.10;;;7.84;95.63;96563.03;4977219;28;20468;-76
2022/04/08 01:49:55;;;;;;;5.33;1.53;;;7.30;99.10;;;7.78;95.85;96572.44;4983054;28;20956;-76
2022/04/08 01:52:25;;;;;;;11.53;2.03;;;7.30;99.20;;;7.72;96.38;96575.88;4979863;28;20539;-76
2022/04/08 01:54:56;;;;;;;8.67;2.20;;;7.20;99.30;;;7.70;97.44;96575.28;4978858;28;20468;-76
2022/04/08 01:57:29;;;;;;;7.43;2.40;;;7.20;99.50;;;7.70;97.23;96583.09;4976791;28;21065;-76
2022/04/08 01:59:58;;;;;;;8.87;2.10;;;7.10;99.50;;;7.76;96.93;96586.66;4978896;28;20463;-76
2022/04/08 02:02:29;;;;;;;11.47;2.23;;;7.20;99.50;;;7.78;97.31;96593.25;4976412;28;20548;-76
2022/04/08 02:05:00;;;;;;;11.83;1.77;;;7.20;99.50;;;7.80;97.46;96596.47;4979474;28;20468;-76
2022/04/08 02:07:29;;;;;;;10.00;2.07;;;7.30;99.70;;;7.78;98.39;96600.25;4978158;28;21188;-76
2022/04/08 02:09:58;;;;;;;9.53;2.00;;;7.20;99.60;;;7.72;98.06;96590.66;4980127;28;21880;-76
2022/04/08 02:12:29;;;;;;;17.43;2.40;;;7.20;99.70;;;7.68;98.84;96594.69;4978146;28;20473;-76
2022/04/08 02:14:59;;;;;;;7.83;1.97;;;7.10;99.70;;;7.70;98.92;96590.09;4977682;28;20488;-76
2022/04/08 02:17:31;;;;;;;12.70;2.60;;;7.20;99.90;;;7.65;99.20;96597.69;4979227;28;20530;-76
2022/04/08 02:20:00;;;;;;;7.40;1.43;;;7.10;99.90;;;7.63;99.68;96597.09;4978032;28;20461;-76
2022/04/08 02:22:30;;;;;;;11.90;2.20;;;7.10;99.90;;;7.63;99.61;96604.91;4979876;28;20524;-76
2022/04/08 02:25:01;;;;;;;9.23;2.70;;;7.00;99.90;;;7.65;100.00;96613.31;4977743;28;20507;-76
2022/04/08 02:27:34;;;;;;;9.30;1.87;;;7.10;99.90;;;7.62;99.99;96611.09;4977320;28;20530;-76
2022/04/08 02:30:04;;;;;;;8.13;2.43;;;7.10;99.90;;;7.60;100.00;96617.31;4981082;28;20498;-76
2022/04/08 02:32:34;;;;;;;12.20;1.87;;;7.10;99.90;;;7.61;100.00;96610.31;4977462;28;20974;-76
2022/04/08 02:35:04;;;;;;;4.70;1.83;;;7.10;99.90;;;7.52;100.00;96620.16;4981366;28;20559;-76
2022/04/08 02:37:33;;;;;;;4.70;1.60;;;7.00;99.90;;;7.53;100.00;96619.13;4980883;28;20474;-75
2022/04/08 02:40:02;;;;;;;3.60;1.83;;;7.00;99.90;;;7.53;100.00;96618.34;4982272;28;20503;-76
2022/04/08 02:42:32;;;;;;;7.80;2.17;;;7.00;99.90;;;7.56;100.00;96625.75;4983149;28;20468;-76
2022/04/08 02:45:01;;;;;;;11.80;1.87;;;7.00;99.90;;;7.58;100.00;96618.53;4983630;28;20476;-76
2022/04/08 02:47:32;;;;;;;13.30;2.37;;;7.00;99.90;;;7.53;100.00;96632.13;4980488;28;20533;-76
2022/04/08 02:50:02;;;;;;;13.53;2.13;;;7.00;99.90;;;7.49;100.00;96633.56;4981869;28;20471;-76
2022/04/08 02:52:32;;;;;;;16.60;2.17;;;6.90;99.90;;;7.52;100.00;96633.16;4985546;28;20444;-76
2022/04/08 02:55:01;;;;;;;9.50;2.13;;;7.00;99.90;;;7.48;100.00;96636.34;4982214;28;20514;-76
2022/04/08 02:57:31;;;;;;;7.10;2.40;;;7.00;99.90;;;7.43;100.00;96625.75;4981951;28;20499;-76
2022/04/08 03:00:02;;;;;;;13.10;2.33;;;6.90;99.90;;;7.44;100.00;96633.34;4979987;28;20456;-76
2022/04/08 03:02:33;;;;;;;14.27;1.47;;;6.80;99.90;;;7.46;100.00;96638.34;4985937;28;20463;-76
2022/04/08 03:05:06;;;;;;;10.23;2.13;;;6.80;99.90;;;7.46;100.00;96639.13;4984233;28;21146;-76
2022/04/08 03:07:36;;;;;;;13.00;3.00;;;6.80;99.90;;;7.45;100.00;96642.75;4981036;28;20886;-76
2022/04/08 03:10:08;;;;;;;4.87;1.73;;;6.80;99.90;;;7.47;100.00;96638.16;4982838;28;20544;-82
2022/04/08 03:12:39;;;;;;;6.23;2.43;;;6.90;99.90;;;7.40;100.00;96642.56;4984589;28;20436;-76
2022/04/08 03:15:10;;;;;;;8.43;1.97;;;6.90;99.90;;;7.34;100.00;96638.16;4985278;28;20472;-76
2022/04/08 03:17:40;;;;;;;9.17;2.47;;;6.80;99.90;;;7.36;100.00;96643.94;4978035;28;20511;-76
2022/04/08 03:20:11;;;;;;;9.47;2.57;;;6.90;99.90;;;7.34;100.00;96640.75;4983132;28;20533;-73
2022/04/08 03:22:41;;;;;;;5.67;2.00;;;6.80;99.90;;;7.35;100.00;96642.38;4984146;28;20474;-73
2022/04/08 03:25:11;;;;;;;11.57;2.63;;;6.80;99.90;;;7.35;100.00;96647.56;4980143;28;20463;-74
2022/04/08 03:27:43;;;;;;;8.50;2.10;;;6.80;99.90;;;7.33;100.00;96646.94;4979894;28;20843;-73
2022/04/08 03:30:14;;;;;;;58.33;27.23;;;6.80;99.90;;;7.31;100.00;96646.38;4980175;28;20465;-74
2022/04/08 03:32:43;;;;;;;10.00;2.57;;;6.70;99.90;;;7.29;100.00;96637.94;4979748;28;20466;-74
2022/04/08 03:35:14;;;;;;;5.50;1.50;;;6.70;99.90;;;7.26;100.00;96637.56;4981256;28;21021;-73
2022/04/08 03:37:44;;;;;;;20.53;1.93;;;6.70;99.90;;;7.25;100.00;96646.38;4981415;28;20488;-73
2022/04/08 03:40:14;;;;;;;9.37;2.10;;;6.60;99.90;;;7.22;100.00;96647.56;4985126;28;20452;-73
2022/04/08 03:42:46;;;;;;;7.73;2.20;;;6.50;99.90;;;7.20;100.00;96639.16;4983033;28;20523;-73
2022/04/08 03:45:16;;;;;;;7.80;2.20;;;6.50;99.90;;;7.20;100.00;96639.16;4983461;28;20889;-73
2022/04/08 03:47:47;;;;;;;8.63;2.27;;;6.50;99.90;;;7.15;100.00;96633.75;4981926;28;20441;-73
2022/04/08 03:50:17;;;;;;;5.40;1.70;;;6.30;99.90;;;7.13;100.00;96635.78;4981910;28;20444;-73
2022/04/08 03:52:47;;;;;;;7.57;1.97;;;6.30;99.90;;;7.12;100.00;96631.56;4979503;28;20524;-73
2022/04/08 03:55:17;;;;;;;18.67;6.10;;;6.30;99.90;;;7.08;100.00;96638.16;4981080;28;21021;-74
2022/04/08 03:57:49;;;;;;;5.33;2.43;;;6.20;99.90;;;7.07;100.00;96633.97;4979935;28;20472;-74
2022/04/08 04:00:18;;;;;;;9.70;2.10;;;6.40;99.90;;;7.03;100.00;96636.16;4981567;28;20465;-74
2022/04/08 04:02:48;;;;;;;20.33;1.97;;;6.30;99.90;;;7.01;100.00;96635.56;4979253;28;20499;-74
2022/04/08 04:05:19;;;;;;;16.27;3.33;;;6.20;99.90;;;6.96;100.00;96650.16;4980109;28;21240;-84
2022/04/08 04:07:49;;;;;;;12.83;2.90;;;6.20;99.90;;;6.95;100.00;96645.94;4977864;28;20468;-74
2022/04/08 04:10:19;;;;;;;4.80;2.00;;;6.30;99.90;;;6.93;100.00;96650.56;4978782;28;20500;-74
2022/04/08 04:12:50;;;;;;;10.73;2.10;;;6.20;99.90;;;6.96;100.00;96652.75;4982726;28;20464;-74
2022/04/08 04:15:20;;;;;;;10.47;2.27;;;6.10;99.90;;;6.95;100.00;96651.16;4980587;28;20532;-74
2022/04/08 04:17:51;;;;;;;6.77;2.13;;;6.20;99.90;;;6.96;100.00;96647.56;4981006;28;20527;-74
2022/04/08 04:20:20;;;;;;;8.97;1.93;;;6.20;99.90;;;6.96;100.00;96657.94;4983850;28;20500;-75
2022/04/08 04:22:50;;;;;;;4.63;1.83;;;6.10;99.90;;;6.93;100.00;96658.34;4981641;28;20460;-75
2022/04/08 04:25:20;;;;;;;12.17;2.20;;;6.00;99.90;;;6.96;100.00;96663.94;4979476;28;20515;-75
2022/04/08 04:27:51;;;;;;;16.30;2.30;;;6.10;99.90;;;6.99;100.00;96657.53;4979351;28;20460;-75
2022/04/08 04:30:23;;;;;;;10.50;2.80;;;6.10;99.90;;;6.98;100.00;96671.53;4982012;28;20476;-75
2022/04/08 04:32:53;;;;;;;10.57;2.50;;;6.20;99.90;;;6.87;100.00;96661.75;4983749;28;20449;-75
2022/04/08 04:35:23;;;;;;;16.30;2.30;;;6.10;99.90;;;6.88;100.00;96650.34;4984301;28;20481;-74
2022/04/08 04:37:53;;;;;;;8.80;2.43;;;6.20;99.90;;;6.91;100.00;96665.53;4982581;28;20453;-76
2022/04/08 04:40:21;;;;;;;6.30;2.33;;;6.20;99.90;;;6.91;100.00;96666.31;4984143;28;20586;-75
2022/04/08 04:42:53;;;;;;;8.27;2.23;;;6.20;99.90;;;6.90;100.00;96667.34;4981046;28;20543;-75
2022/04/08 04:45:23;;;;;;;10.70;3.63;;;6.20;99.90;;;6.91;100.00;96673.31;4983162;28;20498;-75
2022/04/08 04:47:53;;;;;;;15.67;3.10;;;6.20;99.90;;;6.92;100.00;96664.53;4983802;28;20846;-75
2022/04/08 04:50:23;;;;;;;13.10;2.83;;;6.20;99.90;;;6.87;100.00;96670.31;4983777;28;20453;-74
2022/04/08 04:52:56;;;;;;;23.23;3.07;;;6.10;99.90;;;6.90;100.00;96679.53;4983674;28;20475;-75
2022/04/08 04:55:27;;;;;;;4.40;2.50;;;6.20;99.90;;;6.90;100.00;96674.34;4979581;28;20938;-75
2022/04/08 04:57:58;;;;;;;17.63;2.90;;;6.10;99.90;;;6.90;100.00;96679.53;4981425;28;20449;-75
2022/04/08 05:00:28;;;;;;;8.87;2.50;;;6.10;99.90;;;6.91;100.00;96673.31;4979735;28;20500;-74
2022/04/08 05:03:01;;;;;;;16.67;4.17;;;6.10;99.90;;;6.93;100.00;96674.75;4980965;28;20737;-74
2022/04/08 05:05:31;;;;;;;10.83;3.43;;;6.10;99.90;;;6.96;100.00;96673.53;4981138;28;20488;-75
2022/04/08 05:08:03;;;;;;;14.20;3.90;;;6.10;99.90;;;6.97;100.00;96675.94;4979936;28;20452;-75
2022/04/08 05:10:33;;;;;;;18.97;4.60;;;6.10;99.90;;;7.00;100.00;96674.75;4980585;28;20469;-75
2022/04/08 05:13:05;;;;;;;19.30;3.20;;;6.10;99.90;;;6.96;100.00;96673.53;4980899;28;20935;-75
2022/04/08 05:15:38;;;;;;;9.77;2.37;;;6.00;99.90;;;6.89;100.00;96670.94;4978831;28;20474;-75
2022/04/08 05:18:08;;;;;;;10.37;2.60;;;6.10;99.90;;;6.87;100.00;96675.50;4981294;28;20456;-75
2022/04/08 05:20:39;;;;;;;10.93;2.43;;;6.10;99.90;;;6.86;100.00;96680.91;4980900;28;20484;-74
2022/04/08 05:23:09;;;;;;;11.37;2.43;;;6.10;99.90;;;6.85;100.00;96674.91;4981942;28;20444;-75
2022/04/08 05:25:40;;;;;;;7.60;2.37;;;6.10;99.90;;;6.88;100.00;96671.13;4982245;28;21306;-75
2022/04/08 05:28:12;;;;;;;11.60;3.03;;;6.10;99.90;;;6.88;100.00;96664.13;4982300;28;20456;-75
2022/04/08 05:30:43;;;;;;;8.50;2.67;;;6.10;99.90;;;6.90;100.00;96667.34;4978900;28;20971;-75
2022/04/08 05:33:17;;;;;;;17.20;2.37;;;6.10;99.90;;;6.92;100.00;96656.75;4979993;28;20458;-75
2022/04/08 05:35:46;;;;;;;8.20;2.07;;;6.10;99.90;;;6.86;100.00;96654.94;4979436;28;20456;-75
2022/04/08 05:38:16;;;;;;;10.40;2.93;;;5.90;99.90;;;6.88;100.00;96660.72;4980161;28;20469;-75
2022/04/08 05:40:46;;;;;;;5.80;2.13;;;5.90;99.90;;;6.91;100.00;96671.53;4979043;28;21064;-75
2022/04/08 05:43:17;;;;;;;9.10;2.53;;;6.10;99.90;;;6.99;100.00;96662.75;4981085;28;20930;-75
2022/04/08 05:45:47;;;;;;;17.27;2.90;;;6.20;99.90;;;7.00;100.00;96661.75;4979003;28;20742;-75
2022/04/08 05:48:17;;;;;;;10.20;2.50;;;6.10;99.90;;;7.02;100.00;96668.34;4981736;28;20452;-75
2022/04/08 05:50:47;;;;;;;8.63;1.60;;;6.20;99.90;;;7.08;100.00;96666.75;4981493;28;20452;-75
2022/04/08 05:53:16;;;;;;;4.23;1.80;;;6.40;99.90;;;7.09;100.00;96676.16;4983447;28;20448;-75
2022/04/08 05:56:05;;;;;;;7.00;2.10;;;6.40;99.90;;;7.12;100.00;96672.34;4982456;28;20439;-75
2022/04/08 05:58:37;;;;;;;7.03;2.33;;;6.40;99.90;;;7.12;100.00;96675.75;4981665;28;20437;-75
2022/04/08 06:01:06;;;;;;;9.10;3.20;;;6.40;99.90;;;7.14;100.00;96665.16;4983991;28;20570;-74
2022/04/08 06:03:36;;;;;;;4.23;1.90;;;6.50;99.90;;;7.19;100.00;96675.75;4982545;28;20448;-75
2022/04/08 06:06:06;;;;;;;13.03;2.60;;;6.50;99.90;;;7.24;100.00;96665.56;4982982;28;20514;-75
2022/04/08 06:08:37;;;;;;;8.10;2.40;;;6.50;99.90;;;7.28;100.00;96669.38;4980315;28;20459;-75
2022/04/08 06:11:08;;;;;;;4.90;2.13;;;6.50;99.90;;;7.31;100.00;96659.38;4981873;28;20459;-75
2022/04/08 06:13:40;;;;;;;15.23;2.57;;;6.50;99.90;;;7.29;100.00;96657.97;4981329;28;21006;-75
2022/04/08 06:16:11;;;;;;;17.80;2.87;;;6.60;99.90;;;7.31;100.00;96654.16;4980794;28;20441;-75
2022/04/08 06:18:41;;;;;;;10.50;2.10;;;6.70;99.90;;;7.30;100.00;96649.97;4980560;28;20459;-75
2022/04/08 06:21:12;;;;;;;4.77;1.80;;;6.60;99.90;;;7.27;100.00;96636.56;4983159;28;20995;-75
2022/04/08 06:23:41;;;;;;;6.40;2.60;;;6.50;99.90;;;7.34;100.00;96640.75;4981672;28;20806;-74
2022/04/08 06:26:14;;;;;;;10.07;2.93;;;6.70;99.90;;;7.36;100.00;96627.53;4981527;28;20527;-75
2022/04/08 06:28:46;;;;;;;7.53;2.73;;;6.70;99.90;;;7.42;100.00;96624.97;4979983;28;20472;-75
2022/04/08 06:31:17;;;;;;;11.80;2.43;;;6.80;99.90;;;7.42;100.00;96611.97;4978645;28;20947;-75
2022/04/08 06:33:47;;;;;;;22.43;2.23;;;6.70;99.90;;;7.48;100.00;96616.34;4979329;28;20450;-75
2022/04/08 06:36:16;;;;;;;7.60;1.90;;;6.80;99.90;;;7.55;100.00;96611.13;4978831;28;20827;-75
2022/04/08 06:38:48;;;;;;;8.27;2.37;;;6.90;99.90;;;7.54;100.00;96615.53;4978642;28;20453;-75
2022/04/08 06:41:18;;;;;;;4.67;1.97;;;6.90;99.90;;;7.55;100.00;96611.13;4978061;28;20568;-75
2022/04/08 06:43:49;;;;;;;11.27;2.00;;;6.90;99.90;;;7.51;100.00;96605.53;4977157;28;20460;-75
2022/04/08 06:46:21;;;;;;;11.60;2.87;;;6.80;99.90;;;7.53;100.00;96610.53;4976444;28;20452;-75
2022/04/08 06:48:52;;;;;;;6.17;1.93;;;6.90;99.90;;;7.59;100.00;96613.13;4978461;28;20556;-75
2022/04/08 06:51:22;;;;;;;9.30;2.57;;;7.00;99.90;;;7.65;100.00;96611.50;4981482;28;20444;-75
2022/04/08 06:53:52;;;;;;;9.30;1.83;;;7.10;99.90;;;7.63;100.00;96607.50;4982714;28;20444;-75
2022/04/08 06:56:23;;;;;;;10.43;2.20;;;7.00;99.90;;;7.57;100.00;96603.91;4982235;28;20591;-75
2022/04/08 06:58:54;;;;;;;11.07;2.33;;;6.90;99.90;;;7.49;100.00;96597.16;4982852;28;20479;-76
2022/04/08 07:01:25;;;;;;;4.63;1.70;;;6.80;99.90;;;7.59;100.00;96587.13;4980516;28;20492;-75
2022/04/08 07:03:54;;;;;;;8.60;2.30;;;6.90;99.90;;;7.53;100.00;96587.91;4982416;28;20464;-74
2022/04/08 07:06:24;;;;;;;12.87;2.37;;;6.80;99.90;;;7.62;100.00;96588.50;4981395;28;20460;-74
2022/04/08 07:08:55;;;;;;;10.40;2.10;;;7.00;99.90;;;7.70;100.00;96590.09;4980907;28;20451;-75
2022/04/08 07:11:26;;;;;;;8.33;2.50;;;7.00;99.90;;;7.69;100.00;96578.06;4981490;28;20564;-75
2022/04/08 07:13:58;;;;;;;9.53;2.33;;;7.00;99.90;;;7.70;100.00;96572.69;4982603;28;20500;-75
2022/04/08 07:16:28;;;;;;;8.50;2.00;;;7.00;99.90;;;7.74;100.00;96573.84;4979371;28;21024;-75
2022/04/08 07:18:57;;;;;;;12.03;2.37;;;7.00;99.90;;;7.72;100.00;96568.06;4980944;28;20479;-74
2022/04/08 07:21:27;;;;;;;6.00;2.20;;;7.00;99.90;;;7.78;100.00;96562.03;4979609;28;20502;-75
2022/04/08 07:23:56;;;;;;;10.53;2.27;;;7.20;99.90;;;7.87;100.00;96562.59;4984365;28;20816;-75
2022/04/08 07:26:26;;;;;;;5.77;2.47;;;7.30;99.90;;;7.91;100.00;96563.78;4984859;28;20450;-75
2022/04/08 07:29:00;;;;;;;7.97;2.30;;;7.40;99.90;;;7.95;100.00;96565.75;4984766;28;20515;-74
2022/04/08 07:31:31;;;;;;;9.50;2.60;;;7.40;99.90;;;7.93;100.00;96561.78;4983933;28;20471;-75
2022/04/08 07:34:01;;;;;;;6.83;1.93;;;7.40;99.90;;;7.95;100.00;96559.75;4985386;28;20548;-75
2022/04/08 07:36:32;;;;;;;8.67;2.50;;;7.30;99.90;;;8.00;100.00;96554.75;4984183;28;20452;-75
2022/04/08 07:39:03;;;;;;;5.83;2.20;;;7.30;99.90;;;8.03;100.00;96551.72;4984633;28;20439;-74
2022/04/08 07:41:32;;;;;;;16.37;2.77;;;7.40;99.90;;;7.98;100.00;96554.16;4984571;28;20494;-75
2022/04/08 07:44:04;;;;;;;5.80;2.03;;;7.30;99.90;;;7.98;100.00;96548.94;4983654;28;20455;-75
2022/04/08 07:46:34;;;;;;;7.53;2.13;;;7.30;99.90;;;8.02;100.00;96544.91;4984714;28;20467;-75
2022/04/08 07:49:04;;;;;;;10.77;2.60;;;7.40;99.90;;;8.03;100.00;96547.31;4979421;28;20818;-74
2022/04/08 07:51:35;;;;;;;11.10;2.37;;;7.40;99.90;;;8.02;100.00;96557.91;4979796;28;20538;-75
2022/04/08 07:54:09;;;;;;;8.80;1.80;;;7.40;99.90;;;7.96;100.00;96556.16;4978692;28;20989;-75
2022/04/08 07:56:39;;;;;;;17.17;1.93;;;7.30;99.90;;;7.86;100.00;96550.59;4979544;28;20519;-75
2022/04/08 07:59:10;;;;;;;8.53;2.63;;;7.10;99.90;;;7.83;100.00;96548.41;4981439;28;20870;-75
2022/04/08 08:01:42;;;;;;;12.23;2.40;;;7.20;99.90;;;7.85;100.00;96539.38;4980417;28;20607;-75
2022/04/08 08:04:13;;;;;;;9.23;2.27;;;7.20;99.90;;;7.90;100.00;96536.97;4980307;28;20949;-76
2022/04/08 08:06:43;;;;;;;12.53;2.60;;;7.30;99.90;;;7.96;100.00;96530.13;4981671;28;20469;-75
2022/04/08 08:09:14;;;;;;;5.50;1.90;;;7.40;99.90;;;7.99;100.00;96537.50;4979534;28;20455;-75
2022/04/08 08:11:44;;;;;;;8.67;1.60;;;7.40;99.90;;;7.90;100.00;96531.75;4980168;28;20502;-75
2022/04/08 08:14:15;;;;;;;11.50;2.33;;;7.20;99.90;;;7.92;100.00;96519.34;4979822;28;20488;-75
2022/04/08 08:16:47;;;;;;;6.03;1.70;;;7.40;99.90;;;7.93;100.00;96527.94;4982074;28;20456;-75
2022/04/08 08:19:16;;;;;;;12.30;2.07;;;7.30;99.90;;;7.86;100.00;96533.19;4982064;28;20576;-75
2022/04/08 08:21:45;;;;;;;10.17;1.97;;;7.20;99.90;;;7.82;100.00;96518.19;4980282;28;20488;-75
2022/04/08 08:24:16;;;;;;;19.83;2.80;;;7.10;99.90;;;7.84;100.00;96522.19;4981763;28;20473;-74
2022/04/08 08:26:46;;;;;;;17.90;4.03;;;7.10;99.90;;;7.85;100.00;96517.75;4982410;28;20469;-75
2022/04/08 08:29:18;;;;;;;10.80;2.40;;;7.10;99.90;;;7.92;100.00;96516.72;4980476;28;20444;-75
2022/04/08 08:31:48;;;;;;;5.73;1.70;;;7.40;99.90;;;7.98;100.00;96520.31;4978846;28;20871;-75
2022/04/08 08:34:23;;;;;;;12.07;2.60;;;7.40;99.90;;;8.01;100.00;96518.09;4985761;28;20513;-75
2022/04/08 08:36:59;;;;;;;8.20;1.67;;;7.50;99.90;;;7.98;100.00;96515.88;4983391;28;20529;-75
2022/04/08 08:39:29;;;;;;;8.80;2.20;;;7.30;99.90;;;7.98;100.00;96515.13;4983618;28;20529;-75
2022/04/08 08:41:59;;;;;;;5.30;2.20;;;7.30;99.90;;;8.02;100.00;96498.06;4982791;28;20503;-75
2022/04/08 08:44:31;;;;;;;7.77;2.03;;;7.40;99.90;;;8.06;100.00;96504.44;4984786;28;20515;-75
2022/04/08 08:47:07;;;;;;;10.60;2.30;;;7.50;99.90;;;8.10;100.00;96503.81;4982811;28;20486;-75
2022/04/08 08:49:39;;;;;;;5.37;1.73;;;7.50;99.90;;;8.06;100.00;96501.84;4983121;28;20943;-75
2022/04/08 08:52:10;;;;;;;6.30;2.10;;;7.50;99.90;;;8.02;100.00;96498.06;4983261;28;20456;-75
2022/04/08 08:54:41;;;;;;;4.37;1.70;;;7.50;99.90;;;7.96;100.00;96493.69;4984000;28;20445;-75
2022/04/08 08:57:11;;;;;;;5.47;1.87;;;7.50;99.90;;;7.94;100.00;96495.72;4982294;28;20444;-75
2022/04/08 08:59:44;;;;;;;5.27;1.93;;;7.40;99.90;;;7.90;100.00;96489.31;4983408;28;20861;-75
2022/04/08 09:02:20;;;;;;;4.13;1.63;;;7.40;99.90;;;7.87;100.00;96484.53;4982526;28;20484;-76
2022/04/08 09:04:50;;;;;;;8.57;2.20;;;7.20;99.90;;;7.91;100.00;96476.09;4981584;28;20445;-75
2022/04/08 09:07:26;;;;;;;5.27;1.70;;;7.30;99.90;;;7.86;100.00;96481.13;4983748;28;20445;-75
2022/04/08 09:09:57;;;;;;;5.00;2.83;;;7.20;99.90;;;7.90;100.00;96473.72;4981868;28;20464;-75
2022/04/08 09:12:30;;;;;;;2.57;1.47;;;7.30;99.90;;;7.78;100.00;96472.75;4981326;28;20491;-75
2022/04/08 09:15:02;;;;;;;3.00;1.60;;;7.10;99.90;;;7.77;100.00;96473.78;4982762;28;20575;-75
2022/04/08 09:17:33;;;;;;;2.70;1.23;;;7.10;99.90;;;7.72;100.00;96468.41;4982762;28;20436;-75
2022/04/08 09:20:06;;;;;;;4.80;2.00;;;7.00;99.90;;;7.79;100.00;96463.97;4982896;28;20449;-75
2022/04/08 09:22:36;;;;;;;4.70;1.80;;;7.10;99.90;;;7.75;100.00;96454.97;4984346;28;20530;-75
2022/04/08 09:25:11;;;;;;;4.63;2.07;;;7.10;99.90;;;7.73;100.00;96452.59;4982429;28;20433;-75
2022/04/08 09:27:43;;;;;;;3.30;1.40;;;6.90;99.90;;;7.76;100.00;96446.16;4982507;28;20465;-75
2022/04/08 09:30:21;;;;;;;5.57;1.70;;;7.10;99.90;;;7.77;100.00;96432.16;4982743;28;20857;-75
2022/04/08 09:32:54;;;;;;;5.30;2.87;;;7.10;99.90;;;7.78;100.00;96431.94;4980784;28;20558;-74
2022/04/08 09:35:25;;;;;;;4.37;2.27;;;7.00;99.90;;;7.81;100.00;96431.50;4982762;28;20444;-74
2022/04/08 09:38:01;;;;;;;6.10;1.20;;;7.10;99.90;;;7.73;100.00;96423.19;4983293;28;20449;-75
2022/04/08 09:40:39;;;;;;;2.03;1.20;;;7.10;99.90;;;7.56;100.00;96421.06;4982932;28;21086;-75
2022/04/08 09:43:08;;;;;;;2.10;1.00;;;6.80;99.90;;;7.66;100.00;96410.22;4981825;28;20904;-75
2022/04/08 09:45:39;;;;;;;2.27;1.17;;;6.90;99.90;;;7.76;100.00;96414.94;4982473;28;20481;-75
2022/04/08 09:48:11;;;;;;;1.87;1.50;;;7.00;99.90;;;7.62;100.00;96401.22;4983703;28;20782;-76
2022/04/08 09:50:40;;;;;;;3.37;1.60;;;6.80;99.90;;;7.54;100.00;96410.06;4984092;28;20457;-77
2022/04/08 09:53:13;;;;;;;2.43;1.47;;;6.70;99.90;;;7.67;100.00;96405.81;4983440;28;20452;-75
2022/04/08 09:55:45;;;;;;;4.70;1.83;;;6.90;99.90;;;7.70;100.00;96402.78;4983103;28;20451;-75
2022/04/08 09:58:17;;;;;;;3.30;1.60;;;6.80;99.90;;;7.67;100.00;96398.00;4982806;28;20469;-75
2022/04/08 10:00:51;;;;;;;6.83;1.30;;;6.80;99.90;;;7.63;100.00;96399.41;4984000;28;20447;-75
2022/04/08 10:03:22;;;;;;;3.07;1.20;;;6.80;99.90;;;7.57;100.00;96408.84;4983501;28;20476;-75
2022/04/08 10:05:52;;;;;;;2.00;1.20;;;6.70;99.90;;;7.42;100.00;96393.53;4983713;28;20463;-74
2022/04/08 10:08:23;;;;;;;0.90;0.80;;;6.50;99.90;;;7.34;100.00;96398.97;4983120;28;20447;-75
2022/04/08 10:11:07;;;;;;;3.90;1.00;;;6.40;99.90;;;7.39;100.00;96391.31;4981813;28;20830;-75
2022/04/08 10:13:53;;;;;;;8.00;1.20;;;6.50;99.90;;;7.48;100.00;96386.69;4982564;28;20468;-75
2022/04/08 10:16:24;;;;;;;2.97;1.50;;;6.70;99.90;;;7.46;100.00;96380.91;4981967;28;20551;-75
2022/04/08 10:18:54;;;;;;;1.30;0.90;;;6.70;99.90;;;7.35;100.00;96377.16;4981796;28;20456;-75
2022/04/08 10:21:24;;;;;;;1.40;1.10;;;6.50;99.90;;;7.41;100.00;96376.34;4981446;28;20459;-75
2022/04/08 10:23:56;;;;;;;1.40;0.83;;;6.60;99.90;;;7.40;100.00;96364.31;4983332;28;21412;-75
2022/04/08 10:26:28;;;;;;;1.23;1.00;;;6.60;99.90;;;7.24;100.00;96370.03;4982202;28;20479;-75
2022/04/08 10:28:58;;;;;;;1.57;1.23;;;6.50;99.90;;;7.10;100.00;96365.88;4982105;28;20456;-75
2022/04/08 10:31:29;;;;;;;2.90;1.10;;;6.20;99.90;;;7.08;100.00;96366.06;4979509;28;20465;-75
2022/04/08 10:34:03;;;;;;;2.00;1.13;;;6.20;99.90;;;7.13;100.00;96362.06;4979502;28;21034;-75
2022/04/08 10:36:35;;;;;;;1.20;1.10;;;6.30;99.90;;;7.20;100.00;96358.44;4978187;28;20479;-75
2022/04/08 10:39:14;;;;;;;2.80;1.30;;;6.30;99.90;;;7.26;100.00;96352.41;4977006;28;20448;-75
2022/04/08 10:41:52;;;;;;;1.17;1.00;;;6.40;99.90;;;7.36;100.00;96357.13;4977926;28;20566;-75